Time,TemperatureF,DewpointF,PressureIn,WindDirection,WindDirectionDegrees,WindSpeedMPH,WindSpeedGustMPH,Humidity,HourlyPrecipIn,Conditions,Clouds,dailyrainin,SolarRadiationWatts/m^2,SoftwareType,DateUTC
2013-02-15 00:14:00,32.8,24.0,32.13,North,9,7.0,11.0,71,0.00,,,0.00,0,weatherlink.com 1.10,2013-02-15 07:14:00,
2013-02-15 00:29:00,32.9,24.0,32.14,NNW,348,8.0,10.0,70,0.00,,,0.00,0,weatherlink.com 1.10,2013-02-15 07:29:00,
2013-02-15 00:44:00,33.0,24.0,32.15,North,355,8.0,12.0,70,0.00,,,0.00,0,weatherlink.com 1.10,2013-02-15 07:44:00,
2013-02-15 00:59:00,32.9,24.0,32.15,NNW,338,8.0,9.0,70,0.00,,,0.00,0,weatherlink.com 1.10,2013-02-15 07:59:00,
2013-02-15 01:14:00,32.8,24.0,32.15,NNW,337,6.0,11.0,71,0.00,,,0.00,0,weatherlink.com 1.10,2013-02-15 08:14:00,
2013-02-15 01:29:00,32.8,24.0,32.14,NW,317,3.0,9.0,71,0.00,,,0.00,0,weatherlink.com 1.10,2013-02-15 08:29:00,
2013-02-15 01:44:00,32.6,24.0,32.15,NNW,330,1.0,5.0,71,0.00,,,0.00,0,weatherlink.com 1.10,2013-02-15 08:44:00,
2013-02-15 01:59:00,32.5,24.0,32.15,NNE,13,0.0,4.0,71,0.00,,,0.00,0,weatherlink.com 1.10,2013-02-15 08:59:00,
2013-02-15 02:14:00,32.6,24.0,32.15,WNW,303,7.0,7.0,71,0.00,,,0.00,0,weatherlink.com 1.10,2013-02-15 09:14:00,
2013-02-15 02:29:00,32.8,24.0,32.15,NW,317,0.0,4.0,70,0.00,,,0.00,0,weatherlink.com 1.10,2013-02-15 09:29:00,
2013-02-15 02:44:00,32.8,24.0,32.15,North,5,1.0,8.0,70,0.00,,,0.00,0,weatherlink.com 1.10,2013-02-15 09:44:00,
2013-02-15 02:59:00,32.7,24.0,32.16,NNW,338,0.0,5.0,71,0.00,,,0.00,0,weatherlink.com 1.10,2013-02-15 09:59:00,
2013-02-15 03:14:00,32.5,24.0,32.15,NNW,331,0.0,2.0,71,0.00,,,0.00,0,weatherlink.com 1.10,2013-02-15 10:14:00,
2013-02-15 03:29:00,32.7,24.0,32.15,WSW,248,1.0,6.0,71,0.00,,,0.00,0,weatherlink.com 1.10,2013-02-15 10:29:00,
2013-02-15 03:44:00,33.0,24.0,32.15,West,262,0.0,3.0,70,0.00,,,0.00,0,weatherlink.com 1.10,2013-02-15 10:44:00,
2013-02-15 03:59:00,32.9,24.0,32.15,NW,317,3.0,6.0,71,0.00,,,0.00,0,weatherlink.com 1.10,2013-02-15 10:59:00,
2013-02-15 04:14:00,32.8,24.0,32.15,North,355,1.0,7.0,71,0.00,,,0.00,0,weatherlink.com 1.10,2013-02-15 11:14:00,
2013-02-15 04:29:00,32.6,24.0,32.15,North,5,4.0,4.0,72,0.00,,,0.00,0,weatherlink.com 1.10,2013-02-15 11:29:00,
2013-02-15 04:44:00,32.6,25.0,32.15,NNW,338,2.0,5.0,73,0.00,,,0.00,0,weatherlink.com 1.10,2013-02-15 11:44:00,
2013-02-15 04:59:00,32.4,25.0,32.15,NNW,342,0.0,4.0,73,0.00,,,0.00,0,weatherlink.com 1.10,2013-02-15 11:59:00,
2013-02-15 05:14:00,32.5,24.0,32.16,NNW,344,0.0,2.0,72,0.00,,,0.00,0,weatherlink.com 1.10,2013-02-15 12:14:00,
2013-02-15 05:29:00,32.4,24.0,32.16,NNW,344,1.0,1.0,72,0.00,,,0.00,0,weatherlink.com 1.10,2013-02-15 12:29:00,
2013-02-15 05:44:00,32.4,24.0,32.16,NE,44,0.0,1.0,72,0.00,,,0.00,0,weatherlink.com 1.10,2013-02-15 12:44:00,
2013-02-15 05:59:00,32.5,24.0,32.16,ESE,118,1.0,3.0,71,0.00,,,0.00,0,weatherlink.com 1.10,2013-02-15 12:59:00,
2013-02-15 06:14:00,32.7,24.0,32.16,ESE,119,0.0,2.0,70,0.00,,,0.00,0,weatherlink.com 1.10,2013-02-15 13:14:00,
2013-02-15 06:29:00,32.7,24.0,32.17,SW,229,0.0,2.0,70,0.00,,,0.00,0,weatherlink.com 1.10,2013-02-15 13:29:00,
2013-02-15 06:44:00,32.5,24.0,32.17,SSE,165,0.0,0.0,70,0.00,,,0.00,0,weatherlink.com 1.10,2013-02-15 13:44:00,
2013-02-15 06:59:00,32.6,24.0,32.16,South,169,0.0,2.0,70,0.00,,,0.00,0,weatherlink.com 1.10,2013-02-15 13:59:00,
2013-02-15 07:14:00,32.5,24.0,32.16,South,169,0.0,1.0,71,0.00,,,0.00,0,weatherlink.com 1.10,2013-02-15 14:14:00,
2013-02-15 07:29:00,32.7,24.0,32.17,SSE,159,0.0,2.0,71,0.00,,,0.00,0,weatherlink.com 1.10,2013-02-15 14:29:00,
2013-02-15 07:44:00,32.5,24.0,32.17,SSE,159,2.0,2.0,72,0.00,,,0.00,0,weatherlink.com 1.10,2013-02-15 14:44:00,
2013-02-15 07:59:00,32.6,24.0,32.16,SSE,159,0.0,3.0,72,0.00,,,0.00,16,weatherlink.com 1.10,2013-02-15 14:59:00,
2013-02-15 08:14:00,32.8,25.0,32.16,SSE,159,0.0,2.0,72,0.00,,,0.00,32,weatherlink.com 1.10,2013-02-15 15:14:00,
2013-02-15 08:29:00,32.9,25.0,32.17,SSE,159,0.0,0.0,72,0.00,,,0.00,47,weatherlink.com 1.10,2013-02-15 15:29:00,
2013-02-15 08:44:00,33.0,25.0,32.17,SSE,159,0.0,0.0,72,0.00,,,0.00,65,weatherlink.com 1.10,2013-02-15 15:44:00,
2013-02-15 08:59:00,33.4,25.0,32.17,SSE,159,0.0,1.0,70,0.00,,,0.00,102,weatherlink.com 1.10,2013-02-15 15:59:00,
2013-02-15 09:14:00,33.5,25.0,32.18,SSE,159,0.0,2.0,72,0.00,,,0.00,81,weatherlink.com 1.10,2013-02-15 16:14:00,
2013-02-15 09:29:00,33.6,25.0,32.18,SSE,159,0.0,0.0,71,0.00,,,0.00,97,weatherlink.com 1.10,2013-02-15 16:29:00,
2013-02-15 09:44:00,33.9,25.0,32.17,SSE,159,0.0,1.0,70,0.00,,,0.00,116,weatherlink.com 1.10,2013-02-15 16:44:00,
2013-02-15 09:59:00,34.1,26.0,32.17,SSE,161,0.0,4.0,71,0.00,,,0.00,163,weatherlink.com 1.10,2013-02-15 16:59:00,
2013-02-15 10:29:00,35.1,25.0,32.17,South,176,5.0,9.0,68,0.00,,,0.00,288,weatherlink.com 1.10,2013-02-15 17:29:00,
2013-02-15 10:45:00,35.8,25.0,32.17,South,169,6.0,11.0,66,0.00,,,0.00,237,weatherlink.com 1.10,2013-02-15 17:45:00,
2013-02-15 11:00:00,35.3,25.0,32.17,South,187,6.0,11.0,67,0.00,,,0.00,193,weatherlink.com 1.10,2013-02-15 18:00:00,
2013-02-15 11:15:00,35.6,25.0,32.16,South,175,11.0,13.0,66,0.00,,,0.00,236,weatherlink.com 1.10,2013-02-15 18:15:00,
2013-02-15 11:30:00,35.9,25.0,32.16,South,169,9.0,14.0,65,0.00,,,0.00,244,weatherlink.com 1.10,2013-02-15 18:30:00,
2013-02-15 11:45:00,35.9,25.0,32.16,SSE,159,11.0,13.0,66,0.00,,,0.00,200,weatherlink.com 1.10,2013-02-15 18:45:00,
2013-02-15 12:00:00,36.2,25.0,32.15,South,180,9.0,14.0,65,0.00,,,0.00,225,weatherlink.com 1.10,2013-02-15 19:00:00,
2013-02-15 12:15:00,36.9,26.0,32.14,South,171,9.0,13.0,65,0.00,,,0.00,248,weatherlink.com 1.10,2013-02-15 19:15:00,
2013-02-15 12:30:00,38.0,27.0,32.13,SSE,152,11.0,14.0,64,0.00,,,0.00,807,weatherlink.com 1.10,2013-02-15 19:30:00,
2013-02-15 12:45:00,39.1,27.0,32.12,South,170,10.0,17.0,61,0.00,,,0.00,647,weatherlink.com 1.10,2013-02-15 19:45:00,
2013-02-15 13:00:00,39.5,27.0,32.12,SSW,204,9.0,13.0,61,0.00,,,0.00,420,weatherlink.com 1.10,2013-02-15 20:00:00,
2013-02-15 13:15:00,38.8,26.0,32.11,SSW,197,8.0,12.0,61,0.00,,,0.00,302,weatherlink.com 1.10,2013-02-15 20:15:00,
2013-02-15 13:30:00,38.7,26.0,32.10,South,180,3.0,11.0,60,0.00,,,0.00,190,weatherlink.com 1.10,2013-02-15 20:30:00,
2013-02-15 13:45:00,41.4,28.0,32.10,SW,226,5.0,13.0,60,0.00,,,0.00,578,weatherlink.com 1.10,2013-02-15 20:45:00,
2013-02-15 14:00:00,41.5,27.0,32.09,South,186,11.0,12.0,56,0.00,,,0.00,355,weatherlink.com 1.10,2013-02-15 21:00:00,
2013-02-15 14:15:00,40.8,27.0,32.09,SSE,163,4.0,9.0,58,0.00,,,0.00,218,weatherlink.com 1.10,2013-02-15 21:15:00,
2013-02-15 14:30:00,41.1,27.0,32.08,WSW,258,4.0,7.0,58,0.00,,,0.00,250,weatherlink.com 1.10,2013-02-15 21:30:00,
2013-02-15 14:45:00,42.6,28.0,32.07,WSW,257,2.0,8.0,56,0.00,,,0.00,559,weatherlink.com 1.10,2013-02-15 21:45:00,
2013-02-15 15:00:00,42.7,27.0,32.07,NNW,342,2.0,8.0,55,0.00,,,0.00,545,weatherlink.com 1.10,2013-02-15 22:00:00,
2013-02-15 15:15:00,42.6,28.0,32.06,NW,304,0.0,8.0,56,0.00,,,0.00,529,weatherlink.com 1.10,2013-02-15 22:15:00,
2013-02-15 15:30:00,43.0,29.0,32.06,NW,312,1.0,5.0,58,0.00,,,0.00,431,weatherlink.com 1.10,2013-02-15 22:30:00,
2013-02-15 15:45:00,43.0,28.0,32.05,NW,313,2.0,5.0,56,0.00,,,0.00,357,weatherlink.com 1.10,2013-02-15 22:45:00,
2013-02-15 16:00:00,42.7,28.0,32.05,NW,321,2.0,6.0,56,0.00,,,0.00,318,weatherlink.com 1.10,2013-02-15 23:00:00,
2013-02-15 16:15:00,43.1,28.0,32.04,NW,306,2.0,6.0,56,0.00,,,0.00,283,weatherlink.com 1.10,2013-02-15 23:15:00,
2013-02-15 16:30:00,42.6,28.0,32.03,NW,307,3.0,6.0,56,0.00,,,0.00,243,weatherlink.com 1.10,2013-02-15 23:30:00,
2013-02-15 16:45:00,41.7,28.0,32.03,NNW,335,3.0,6.0,58,0.00,,,0.00,193,weatherlink.com 1.10,2013-02-15 23:45:00,
2013-02-15 17:00:00,41.7,28.0,32.03,NNW,327,2.0,5.0,58,0.00,,,0.00,146,weatherlink.com 1.10,2013-02-16 00:00:00,
2013-02-15 17:15:00,41.3,28.0,32.02,NNW,329,2.0,5.0,59,0.00,,,0.00,98,weatherlink.com 1.10,2013-02-16 00:15:00,
2013-02-15 17:30:00,40.4,28.0,32.02,NNW,329,0.0,3.0,61,0.00,,,0.00,25,weatherlink.com 1.10,2013-02-16 00:30:00,
2013-02-15 17:45:00,39.0,28.0,32.02,NNW,333,0.0,3.0,64,0.00,,,0.00,14,weatherlink.com 1.10,2013-02-16 00:45:00,
2013-02-15 18:00:00,38.0,27.0,32.01,NNW,333,0.0,3.0,66,0.00,,,0.00,7,weatherlink.com 1.10,2013-02-16 01:00:00,
2013-02-15 18:15:00,37.9,28.0,32.01,NNE,31,2.0,5.0,67,0.00,,,0.00,0,weatherlink.com 1.10,2013-02-16 01:15:00,
2013-02-15 18:30:00,37.0,27.0,32.00,NE,41,2.0,4.0,68,0.00,,,0.00,0,weatherlink.com 1.10,2013-02-16 01:30:00,
2013-02-15 18:45:00,37.1,28.0,32.00,NE,34,3.0,6.0,69,0.00,,,0.00,0,weatherlink.com 1.10,2013-02-16 01:45:00,
2013-02-15 19:00:00,37.3,28.0,32.00,NE,52,5.0,7.0,69,0.00,,,0.00,0,weatherlink.com 1.10,2013-02-16 02:00:00,
2013-02-15 19:15:00,37.1,28.0,31.99,NE,49,4.0,6.0,69,0.00,,,0.00,0,weatherlink.com 1.10,2013-02-16 02:15:00,
2013-02-15 19:30:00,36.9,28.0,31.99,NE,40,4.0,6.0,70,0.00,,,0.00,0,weatherlink.com 1.10,2013-02-16 02:30:00,
2013-02-15 19:45:00,37.0,28.0,31.99,NE,45,2.0,6.0,70,0.00,,,0.00,0,weatherlink.com 1.10,2013-02-16 02:45:00,
2013-02-15 20:00:00,37.0,28.0,31.99,NE,44,2.0,5.0,70,0.00,,,0.00,0,weatherlink.com 1.10,2013-02-16 03:00:00,
2013-02-15 20:16:00,37.1,28.0,31.98,NE,51,2.0,4.0,70,0.00,,,0.00,0,weatherlink.com 1.10,2013-02-16 03:16:00,
2013-02-15 20:31:00,37.1,28.0,31.99,NE,51,0.0,5.0,70,0.00,,,0.00,0,weatherlink.com 1.10,2013-02-16 03:31:00,
2013-02-15 20:46:00,37.0,28.0,31.98,NE,44,2.0,4.0,70,0.00,,,0.00,0,weatherlink.com 1.10,2013-02-16 03:46:00,
2013-02-15 21:01:00,37.0,28.0,31.98,NE,52,2.0,4.0,70,0.00,,,0.00,0,weatherlink.com 1.10,2013-02-16 04:01:00,
2013-02-15 21:16:00,37.0,28.0,31.97,NE,52,0.0,2.0,70,0.00,,,0.00,0,weatherlink.com 1.10,2013-02-16 04:16:00,
2013-02-15 21:31:00,36.5,28.0,31.97,NE,52,0.0,0.0,71,0.00,,,0.00,0,weatherlink.com 1.10,2013-02-16 04:31:00,
2013-02-15 21:46:00,36.1,28.0,31.98,NE,52,1.0,2.0,72,0.00,,,0.00,0,weatherlink.com 1.10,2013-02-16 04:46:00,
2013-02-15 22:01:00,35.9,28.0,31.97,East,98,2.0,5.0,72,0.00,,,0.00,0,weatherlink.com 1.10,2013-02-16 05:01:00,
2013-02-15 22:16:00,35.6,28.0,31.97,SSE,165,1.0,4.0,73,0.00,,,0.00,0,weatherlink.com 1.10,2013-02-16 05:16:00,
2013-02-15 22:31:00,34.4,27.0,31.97,SSE,168,2.0,3.0,75,0.00,,,0.00,0,weatherlink.com 1.10,2013-02-16 05:31:00,
2013-02-15 22:46:00,33.8,27.0,31.96,SSE,168,1.0,3.0,76,0.00,,,0.00,0,weatherlink.com 1.10,2013-02-16 05:46:00,
2013-02-15 23:01:00,33.7,27.0,31.97,SSE,168,2.0,2.0,77,0.00,,,0.00,0,weatherlink.com 1.10,2013-02-16 06:01:00,
2013-02-15 23:16:00,33.9,27.0,31.96,SSE,164,1.0,1.0,76,0.00,,,0.00,0,weatherlink.com 1.10,2013-02-16 06:16:00,
2013-02-15 23:31:00,33.5,27.0,31.96,SSE,164,0.0,3.0,76,0.00,,,0.00,0,weatherlink.com 1.10,2013-02-16 06:31:00,
2013-02-15 23:46:00,32.6,26.0,31.96,SSE,164,0.0,1.0,78,0.00,,,0.00,0,weatherlink.com 1.10,2013-02-16 06:46:00,